Time;durP1;ratioP1;P1;durP2;ratioP2;P2;SDS_P1;SDS_P2;PMS_P1;PMS_P2;Temp;Humidity;BMP_temperature;BMP_pressure;BME280_temperature;BME280_humidity;BME280_pressure;Samples;Min_cycle;Max_cycle;Signal;HPM_P1;HPM_P2
2021/08/10 00:00:47;;;;;;;10.37;9.40;;;;;;;21.22;79.53;100620.88;1745404;80;21114;-69
2021/08/10 00:03:15;;;;;;;10.47;9.13;;;;;;;21.17;79.67;100616.44;1735207;80;21025;-67
2021/08/10 00:05:48;;;;;;;10.23;9.20;;;;;;;21.15;79.92;100618.67;1741349;80;21062;-68
2021/08/10 00:08:19;;;;;;;9.20;8.30;;;;;;;;;;1716631;82;21003;-68
2021/08/10 00:10:48;;;;;;;10.33;9.00;;;;;;;21.11;80.19;100613.67;1740127;80;21079;-68
2021/08/10 00:13:20;;;;;;;10.03;8.80;;;;;;;21.07;80.28;100614.88;1726404;82;21245;-68
2021/08/10 00:15:46;;;;;;;10.13;8.97;;;;;;;21.05;80.15;100611.69;1712842;82;21557;-70
2021/08/10 00:18:13;;;;;;;9.87;8.90;;;;;;;21.02;80.11;100612.34;1724082;82;21655;-68
2021/08/10 00:20:40;;;;;;;9.40;8.50;;;;;;;21.00;80.11;100613.80;1720865;81;21074;-70
2021/08/10 00:23:06;;;;;;;9.10;8.20;;;;;;;20.98;80.17;100611.97;1726392;81;21119;-68
2021/08/10 00:25:33;;;;;;;9.77;8.77;;;;;;;20.96;80.21;100607.41;1722778;81;21110;-69
2021/08/10 00:27:59;;;;;;;9.57;8.37;;;;;;;20.93;80.44;100610.23;1726224;81;21085;-70
2021/08/10 00:30:26;;;;;;;9.30;8.40;;;;;;;20.89;80.59;100613.91;1720775;82;21030;-69
2021/08/10 00:32:53;;;;;;;9.93;8.93;;;;;;;20.84;80.66;100615.69;1727895;82;21082;-68
2021/08/10 00:35:20;;;;;;;9.60;8.67;;;;;;;20.81;80.84;100621.77;1724212;81;21126;-69
2021/08/10 00:37:47;;;;;;;10.23;9.13;;;;;;;20.78;80.93;100621.05;1723944;81;21603;-69
2021/08/10 00:40:14;;;;;;;9.20;8.30;;;;;;;20.75;81.11;100618.98;1724914;82;21113;-69
2021/08/10 00:42:42;;;;;;;11.17;8.87;;;;;;;20.75;81.27;100622.27;1728018;81;21046;-69
2021/08/10 00:45:10;;;;;;;9.53;8.73;;;;;;;20.72;81.38;100618.84;1721544;81;21082;-70
2021/08/10 00:47:38;;;;;;;9.50;8.50;;;;;;;20.70;81.41;100615.10;1721817;82;21873;-70
2021/08/10 00:50:09;;;;;;;8.53;7.73;;;;;;;20.68;81.43;100617.33;1722224;81;21122;-69
2021/08/10 00:52:37;;;;;;;9.17;8.17;;;;;;;20.67;81.48;100615.75;1715507;81;21581;-69
2021/08/10 00:55:07;;;;;;;9.77;8.77;;;;;;;20.66;81.58;100620.92;1715445;82;21624;-69
2021/08/10 00:57:35;;;;;;;10.87;8.23;;;;;;;20.64;81.64;100625.89;1720822;81;21105;-69
2021/08/10 01:00:05;;;;;;;10.33;8.70;;;;;;;20.60;81.57;100617.59;1722337;81;21125;-69
2021/08/10 01:02:32;;;;;;;9.70;8.43;;;;;;;20.59;81.46;100626.05;1722041;81;22744;-69
2021/08/10 01:04:59;;;;;;;9.47;8.27;;;;;;;20.56;81.52;100622.62;1725259;82;21605;-69
2021/08/10 01:07:46;;;;;;;9.13;8.23;;;;;;;20.52;81.59;100622.47;1716619;81;21153;-69
2021/08/10 01:10:28;;;;;;;10.07;8.67;;;;;;;20.50;81.81;100627.94;1718384;81;21175;-71
2021/08/10 01:13:07;;;;;;;8.97;8.07;;;;;;;20.47;82.04;100627.25;1726229;81;22364;-68
2021/08/10 01:15:45;;;;;;;9.70;8.50;;;;;;;20.42;82.46;100629.56;1723814;82;21027;-69
2021/08/10 01:18:29;;;;;;;10.57;8.80;;;;;;;20.40;82.60;100629.10;1695659;83;22230;-69
2021/08/10 01:21:19;;;;;;;9.97;8.97;;;;;;;20.35;82.88;100625.98;1727445;82;21616;-69
2021/08/10 01:24:02;;;;;;;9.47;8.37;;;;;;;20.32;83.09;100634.75;1724476;81;21082;-70
2021/08/10 01:26:53;;;;;;;9.70;8.70;;;;;;;20.28;83.39;100629.73;1721343;81;21130;-69
2021/08/10 01:29:52;;;;;;;9.95;8.95;;;;;;;20.27;83.52;100639.00;1716629;82;21046;-68
2021/08/10 01:32:21;;;;;;;11.43;9.83;;;;;;;20.24;83.62;100631.50;1719135;81;21578;-68
2021/08/10 01:34:48;;;;;;;11.23;10.13;;;;;;;20.23;83.74;100630.45;1718531;81;21495;-70
2021/08/10 01:37:23;;;;;;;11.17;10.07;;;;;;;20.20;84.01;100625.10;1715733;81;21138;-70
2021/08/10 01:40:00;;;;;;;11.60;10.40;;;;;;;20.20;84.16;100625.66;1713945;82;21868;-69
2021/08/10 01:42:29;;;;;;;14.07;11.10;;;;;;;20.18;84.43;100623.28;1722421;82;21495;-70
2021/08/10 01:45:00;;;;;;;12.70;10.97;;;;;;;20.16;84.63;100622.80;1723258;82;21042;-69
2021/08/10 01:47:33;;;;;;;12.13;10.80;;;;;;;20.14;84.77;100619.06;1717932;82;21118;-68
2021/08/10 01:50:03;;;;;;;11.63;10.43;;;;;;;20.12;84.88;100611.80;1721774;81;21565;-70
2021/08/10 01:52:29;;;;;;;11.83;10.73;;;;;;;20.11;85.08;100608.85;1727640;82;21835;-69
2021/08/10 01:54:58;;;;;;;13.00;11.23;;;;;;;20.09;85.13;100607.01;1723504;81;22451;-69
2021/08/10 01:57:25;;;;;;;13.73;11.93;;;;;;;20.06;85.37;100609.00;1720622;82;21585;-69
2021/08/10 01:59:55;;;;;;;12.40;10.87;;;;;;;20.03;85.58;100610.99;1724005;82;22566;-68
2021/08/10 02:02:22;;;;;;;12.00;10.77;;;;;;;20.01;85.81;100611.09;1726385;82;21003;-69
2021/08/10 02:04:50;;;;;;;10.77;9.73;;;;;;;19.97;85.95;100610.11;1729537;81;21162;-70
2021/08/10 02:07:19;;;;;;;12.53;11.07;;;;;;;19.96;86.13;100611.23;1723199;81;21476;-71
2021/08/10 02:09:48;;;;;;;13.90;11.50;;;;;;;19.93;86.31;100611.31;1727817;82;21026;-70
2021/08/10 02:12:15;;;;;;;13.10;10.70;;;;;;;19.90;86.36;100607.88;1728002;82;21443;-70
2021/08/10 02:14:44;;;;;;;12.03;10.40;;;;;;;19.87;86.43;100610.69;1724474;81;21244;-70
2021/08/10 02:17:15;;;;;;;10.60;9.58;;;;;;;19.85;86.51;100606.13;1722926;82;21103;-70
2021/08/10 02:19:45;;;;;;;12.00;10.23;;;;;;;19.82;86.55;100610.83;1715360;81;21059;-69
2021/08/10 02:22:15;;;;;;;12.40;10.17;;;;;;;19.79;86.61;100599.83;1715876;82;21063;-70
2021/08/10 02:25:03;;;;;;;11.87;10.63;;;;;;;19.77;86.70;100601.48;1716912;81;21067;-69
2021/08/10 02:27:52;;;;;;;11.67;9.53;;;;;;;19.76;86.74;100605.88;1697634;81;21015;-70
2021/08/10 02:30:23;;;;;;;11.23;10.13;;;;;;;19.73;86.77;100608.66;1723170;81;21105;-70
2021/08/10 02:32:51;;;;;;;11.28;10.03;;;;;;;19.72;86.90;100607.64;1729560;81;21035;-70
2021/08/10 02:35:20;;;;;;;11.33;10.13;;;;;;;19.69;87.00;100611.77;1725546;81;21081;-70
2021/08/10 02:37:47;;;;;;;11.23;9.33;;;;;;;19.66;87.12;100615.91;1715873;82;21101;-69
2021/08/10 02:40:18;;;;;;;12.07;10.20;;;;;;;19.65;87.24;100617.03;1695205;83;21574;-69
2021/08/10 02:42:49;;;;;;;10.27;9.27;;;;;;;19.62;87.26;100620.34;1717381;81;22312;-70
2021/08/10 02:45:16;;;;;;;11.50;10.30;;;;;;;19.59;87.33;100614.20;1724926;81;21786;-70
2021/08/10 02:47:52;;;;;;;11.63;10.43;;;;;;;19.58;87.35;100615.88;1718404;82;21101;-70
2021/08/10 02:50:24;;;;;;;9.80;8.87;;;;;;;19.56;87.39;100616.74;1724223;82;21052;-69
2021/08/10 02:52:54;;;;;;;11.17;10.03;;;;;;;19.54;87.51;100617.05;1750748;80;21042;-69
2021/08/10 02:55:22;;;;;;;11.23;10.13;;;;;;;19.52;87.62;100615.78;1731358;82;21068;-68
2021/08/10 02:58:13;;;;;;;11.57;10.37;;;;;;;19.51;87.68;100620.37;1722567;82;21071;-70
2021/08/10 03:00:43;;;;;;;10.47;9.37;;;;;;;19.50;87.70;100616.64;1721361;82;21086;-68
2021/08/10 03:03:12;;;;;;;10.13;9.10;;;;;;;19.49;87.72;100621.83;1723125;82;21003;-68
2021/08/10 03:05:41;;;;;;;11.22;10.15;;;;;;;19.47;87.83;100614.56;1716823;82;21034;-69
2021/08/10 03:08:08;;;;;;;10.90;9.80;;;;;;;19.45;87.93;100621.10;1725253;81;21172;-69
2021/08/10 03:10:37;;;;;;;12.20;9.60;;;;;;;19.45;88.01;100622.45;1644764;83;21098;-68
2021/08/10 03:13:08;;;;;;;11.37;9.57;;;;;;;19.46;88.06;100623.25;1698599;82;22596;-69
2021/08/10 03:15:38;;;;;;;10.27;9.27;;;;;;;19.46;88.12;100620.55;1717137;81;21071;-68
2021/08/10 03:18:11;;;;;;;10.25;9.35;;;;;;;19.45;88.15;100619.75;1698107;82;21105;-68
2021/08/10 03:20:41;;;;;;;10.80;9.80;;;;;;;19.45;88.22;100621.10;1719251;82;21869;-70
2021/08/10 03:23:08;;;;;;;11.47;9.50;;;;;;;19.48;88.25;100620.21;1718661;81;21133;-69
2021/08/10 03:25:35;;;;;;;10.20;9.20;;;;;;;19.48;88.29;100626.45;1728184;82;20999;-69
2021/08/10 03:28:03;;;;;;;10.13;9.20;;;;;;;19.52;88.29;100629.33;1727479;82;21141;-69
2021/08/10 03:30:30;;;;;;;11.30;9.70;;;;;;;19.54;88.27;100625.73;1699004;82;21141;-69
2021/08/10 03:32:59;;;;;;;11.87;9.60;;;;;;;19.58;88.26;100628.08;1715776;82;21148;-69
2021/08/10 03:35:27;;;;;;;10.00;9.00;;;;;;;19.61;88.14;100626.06;1717733;82;21058;-70
2021/08/10 03:37:55;;;;;;;10.50;9.40;;;;;;;19.63;88.01;100630.62;1718051;82;21051;-70
2021/08/10 03:40:23;;;;;;;10.60;9.00;;;;;;;19.66;87.77;100630.02;1720484;82;21047;-68
2021/08/10 03:42:50;;;;;;;10.30;9.30;;;;;;;19.69;87.55;100630.74;1725666;81;21049;-70
2021/08/10 03:45:19;;;;;;;9.60;8.67;;;;;;;19.72;87.29;100627.41;1725045;82;21116;-69
2021/08/10 03:47:46;;;;;;;9.57;8.67;;;;;;;19.76;87.09;100622.14;1720170;81;21168;-69
2021/08/10 03:50:13;;;;;;;9.97;8.93;;;;;;;19.78;86.80;100620.72;1721136;81;21083;-70
2021/08/10 03:52:40;;;;;;;10.43;8.80;;;;;;;19.82;86.57;100626.30;1722065;81;21073;-71
2021/08/10 03:55:10;;;;;;;9.60;8.23;;;;;;;19.87;86.43;100622.89;1723323;82;21087;-70
2021/08/10 03:57:37;;;;;;;10.33;8.80;;;;;;;19.92;86.32;100623.28;1725746;82;21503;-70
2021/08/10 04:00:07;;;;;;;9.77;8.53;;;;;;;19.96;86.11;100623.44;1674357;82;21575;-72
2021/08/10 04:02:36;;;;;;;10.72;8.85;;;;;;;19.98;85.69;100628.00;1726796;81;21530;-71
2021/08/10 04:05:03;;;;;;;9.03;8.13;;;;;;;20.00;85.40;100625.19;1721592;81;21690;-68
2021/08/10 04:07:31;;;;;;;10.73;8.63;;;;;;;20.03;85.15;100626.47;1729911;81;21102;-68
2021/08/10 04:10:02;;;;;;;9.50;8.60;;;;;;;20.06;85.03;100625.27;1725181;82;21478;-69
2021/08/10 04:12:29;;;;;;;9.23;8.17;;;;;;;20.08;84.76;100625.76;1721948;81;21097;-67
2021/08/10 04:14:57;;;;;;;10.03;8.87;;;;;;;20.12;84.52;100621.84;1720991;81;21074;-69
2021/08/10 04:17:26;;;;;;;9.80;8.30;;;;;;;20.15;84.41;100622.56;1726657;82;21023;-70
2021/08/10 04:19:56;;;;;;;8.67;7.77;;;;;;;20.20;84.18;100618.32;1747783;80;21568;-70
2021/08/10 04:22:23;;;;;;;9.93;7.93;;;;;;;20.25;84.04;100614.66;1711610;83;21117;-68
2021/08/10 04:24:50;;;;;;;8.90;7.80;;;;;;;20.29;83.74;100611.55;1728483;81;21074;-70
2021/08/10 04:27:17;;;;;;;10.40;7.87;;;;;;;20.35;83.63;100615.69;1726596;82;21038;-68
2021/08/10 04:29:45;;;;;;;8.23;7.40;;;;;;;20.42;83.35;100612.48;1724742;81;21003;-68
2021/08/10 04:32:12;;;;;;;8.47;7.40;;;;;;;20.47;82.71;100604.20;1738548;80;21102;-67
2021/08/10 04:34:40;;;;;;;11.47;7.37;;;;;;;20.53;82.35;100612.41;1749809;80;21179;-71
2021/08/10 04:37:07;;;;;;;11.53;7.87;;;;;;;20.57;81.98;100609.31;1747635;80;21079;-69
2021/08/10 04:39:36;;;;;;;9.63;7.33;;;;;;;20.61;81.62;100614.32;1709420;81;21610;-71
2021/08/10 04:42:04;;;;;;;9.53;7.90;;;;;;;20.66;81.12;100616.84;1741671;82;21542;-69
2021/08/10 04:44:31;;;;;;;9.23;7.23;;;;;;;20.70;80.66;100611.59;1715146;81;21588;-71
2021/08/10 04:46:59;;;;;;;8.17;7.37;;;;;;;20.73;80.33;100600.88;1730099;82;21162;-70
2021/08/10 04:49:25;;;;;;;7.80;7.00;;;;;;;20.77;79.94;100603.18;1727944;82;21051;-70
2021/08/10 04:51:54;;;;;;;9.60;7.03;;;;;;;20.81;79.64;100612.27;1720282;82;21019;-71
2021/08/10 04:54:22;;;;;;;8.80;7.20;;;;;;;20.84;79.39;100601.32;1730303;81;21051;-70
2021/08/10 04:56:50;;;;;;;8.00;7.10;;;;;;;20.89;79.11;100598.41;1726171;82;21074;-70
2021/08/10 04:59:19;;;;;;;9.33;7.00;;;;;;;20.94;78.86;100597.45;1726958;82;21108;-70
2021/08/10 05:01:46;;;;;;;8.90;6.97;;;;;;;20.97;78.71;100602.23;1725284;81;21047;-73
2021/08/10 05:04:13;;;;;;;8.23;7.43;;;;;;;21.03;78.67;100605.80;1709058;82;21592;-69
2021/08/10 05:06:42;;;;;;;7.50;6.80;;;;;;;21.10;78.44;100614.01;1728006;82;21013;-70
2021/08/10 05:09:09;;;;;;;7.97;6.50;;;;;;;21.15;77.85;100609.17;1726796;81;21074;-71
2021/08/10 05:11:38;;;;;;;8.40;6.67;;;;;;;21.19;77.57;100607.41;1743770;80;21086;-69
2021/08/10 05:14:08;;;;;;;9.43;6.87;;;;;;;21.24;77.22;100607.22;1724319;82;21083;-70
2021/08/10 05:16:36;;;;;;;9.33;7.27;;;;;;;21.29;77.16;100605.69;1743162;80;21054;-70
2021/08/10 05:19:04;;;;;;;10.17;7.93;;;;;;;21.36;76.89;100603.84;1732299;81;21542;-70
2021/08/10 05:21:34;;;;;;;9.57;7.20;;;;;;;21.44;76.67;100600.83;1744548;81;21621;-70
2021/08/10 05:24:01;;;;;;;11.87;8.80;;;;;;;21.51;76.36;100601.09;1742715;80;21165;-71
2021/08/10 05:26:28;;;;;;;10.67;8.80;;;;;;;21.60;76.01;100604.56;1690317;82;21154;-70
2021/08/10 05:28:57;;;;;;;14.43;9.30;;;;;;;21.66;75.45;100611.41;1723433;82;21102;-70
2021/08/10 05:31:24;;;;;;;12.03;9.30;;;;;;;21.70;75.15;100604.73;1712342;82;21081;-70
2021/08/10 05:33:52;;;;;;;10.27;8.87;;;;;;;21.75;74.76;100612.68;1725366;81;21141;-70
2021/08/10 05:36:20;;;;;;;10.57;9.10;;;;;;;21.77;74.48;100608.52;1752097;81;22214;-70
2021/08/10 05:38:53;;;;;;;11.10;9.97;;;;;;;21.85;74.56;100600.08;1748562;80;21000;-71
2021/08/10 05:41:21;;;;;;;13.00;10.20;;;;;;;21.89;73.90;100605.08;1712469;81;21024;-71
2021/08/10 05:43:48;;;;;;;11.23;8.93;;;;;;;21.92;73.76;100598.98;1709476;81;21046;-71
2021/08/10 05:46:15;;;;;;;10.17;8.60;;;;;;;21.97;73.40;100592.53;1714159;82;21485;-74
2021/08/10 05:48:42;;;;;;;11.57;9.10;;;;;;;22.00;73.70;100594.02;1721856;81;21792;-73
2021/08/10 05:51:11;;;;;;;13.77;9.13;;;;;;;22.09;73.48;100595.88;1741641;80;21031;-70
2021/08/10 05:53:41;;;;;;;10.83;9.10;;;;;;;22.16;73.00;100601.03;1716387;82;21574;-74
2021/08/10 05:56:11;;;;;;;10.73;9.13;;;;;;;22.22;72.89;100594.27;1751933;80;21079;-68
2021/08/10 05:58:39;;;;;;;12.77;9.00;;;;;;;22.29;73.04;100600.52;1749788;80;21126;-71
2021/08/10 06:01:07;;;;;;;10.13;8.37;;;;;;;22.40;73.08;100602.25;1734899;80;21110;-70
2021/08/10 06:03:35;;;;;;;13.27;8.47;;;;;;;22.51;72.89;100599.35;1723043;81;21645;-69
2021/08/10 06:06:04;;;;;;;10.43;7.80;;;;;;;22.62;72.45;100600.50;1725568;82;21114;-72
2021/08/10 06:08:34;;;;;;;10.13;7.63;;;;;;;22.73;72.06;100600.06;1724026;81;21111;-69
2021/08/10 06:11:03;;;;;;;9.55;7.70;;;;;;;22.82;71.44;100595.31;1712139;81;27371;-70
2021/08/10 06:13:31;;;;;;;10.77;9.17;;;;;;;22.87;71.06;100589.09;1719255;81;21113;-68
2021/08/10 06:15:58;;;;;;;9.63;8.47;;;;;;;22.93;71.09;100595.94;1726269;81;21069;-69
2021/08/10 06:18:25;;;;;;;11.40;9.07;;;;;;;23.02;70.27;100588.22;1722106;81;20998;-70
2021/08/10 06:20:52;;;;;;;10.23;8.20;;;;;;;23.08;69.77;100590.94;1718512;81;21090;-69
2021/08/10 06:23:21;;;;;;;9.30;8.13;;;;;;;23.12;69.74;100589.91;1721443;81;21105;-69
2021/08/10 06:25:50;;;;;;;8.30;7.40;;;;;;;23.17;69.54;100591.63;1722928;81;21062;-72
2021/08/10 06:28:18;;;;;;;8.20;6.57;;;;;;;23.24;69.51;100594.58;1743514;80;21636;-70
2021/08/10 06:30:46;;;;;;;7.53;6.07;;;;;;;23.33;69.16;100589.80;1744061;80;21140;-69
2021/08/10 06:33:13;;;;;;;7.43;6.60;;;;;;;23.41;68.67;100601.71;1742092;80;21054;-69
2021/08/10 06:35:42;;;;;;;9.20;6.70;;;;;;;23.48;68.50;100599.20;1708937;82;21028;-71
2021/08/10 06:38:09;;;;;;;8.03;6.50;;;;;;;23.56;68.06;100596.93;1712227;81;21106;-71
2021/08/10 06:40:38;;;;;;;9.83;7.30;;;;;;;23.61;67.59;100594.52;1721440;81;21479;-69
2021/08/10 06:43:05;;;;;;;8.83;6.80;;;;;;;23.64;67.57;100591.11;1718129;81;21210;-69
2021/08/10 06:45:32;;;;;;;9.97;7.87;;;;;;;23.69;67.02;100599.09;1727747;81;21071;-69
2021/08/10 06:47:59;;;;;;;10.87;6.93;;;;;;;23.71;66.36;100594.65;1723241;81;21118;-70
2021/08/10 06:50:29;;;;;;;9.30;6.60;;;;;;;23.71;66.45;100596.02;1725635;81;21144;-68
2021/08/10 06:52:56;;;;;;;8.43;6.47;;;;;;;23.77;66.84;100589.18;1725732;81;21075;-69
2021/08/10 06:55:24;;;;;;;8.53;6.00;;;;;;;23.88;66.86;100590.27;1721802;81;21616;-69
2021/08/10 06:57:51;;;;;;;7.63;6.43;;;;;;;23.99;66.90;100583.20;1730229;82;21590;-69
2021/08/10 07:00:19;;;;;;;7.47;6.63;;;;;;;24.11;66.49;100585.08;1720334;81;21049;-69
2021/08/10 07:02:46;;;;;;;9.10;6.80;;;;;;;24.15;65.70;100591.41;1726602;81;21116;-69
2021/08/10 07:05:15;;;;;;;6.70;5.67;;;;;;;24.16;65.07;100586.20;1725129;81;21046;-69
2021/08/10 07:07:43;;;;;;;6.80;5.60;;;;;;;24.18;64.46;100581.74;1725841;81;21042;-69
2021/08/10 07:10:10;;;;;;;6.83;5.70;;;;;;;24.17;64.33;100593.81;1725801;81;21200;-69
2021/08/10 07:12:37;;;;;;;7.90;5.43;;;;;;;24.11;64.50;100572.22;1721776;81;21065;-69
2021/08/10 07:15:06;;;;;;;8.47;5.70;;;;;;;24.14;64.79;100584.95;1721988;81;21582;-71
2021/08/10 07:17:34;;;;;;;9.40;5.97;;;;;;;24.20;65.01;100575.38;1696008;82;21567;-70
2021/08/10 07:20:04;;;;;;;6.87;5.57;;;;;;;24.34;64.41;100578.48;1726836;81;21003;-69
2021/08/10 07:22:31;;;;;;;6.93;5.77;;;;;;;24.45;63.34;100580.97;1695442;82;21149;-69
2021/08/10 07:24:59;;;;;;;6.73;5.40;;;;;;;24.52;62.95;100585.25;1745093;80;21093;-70
2021/08/10 07:27:26;;;;;;;14.80;5.83;;;;;;;24.60;62.75;100582.70;1701747;81;21096;-70
2021/08/10 07:29:54;;;;;;;10.60;6.37;;;;;;;24.66;62.40;100587.55;1747213;80;21075;-70
2021/08/10 07:32:22;;;;;;;9.20;6.10;;;;;;;24.72;61.90;100583.98;1725590;81;21125;-69
2021/08/10 07:34:50;;;;;;;9.33;5.43;;;;;;;24.78;61.67;100579.27;1725862;81;21023;-71
2021/08/10 07:37:19;;;;;;;10.57;5.77;;;;;;;24.84;61.82;100581.72;1724047;81;21065;-72
2021/08/10 07:39:48;;;;;;;7.13;4.90;;;;;;;24.88;60.82;100577.95;1723847;81;21007;-70
2021/08/10 07:42:16;;;;;;;6.43;5.03;;;;;;;24.91;60.82;100583.26;1724355;81;21109;-71
2021/08/10 07:44:44;;;;;;;6.03;5.43;;;;;;;24.92;60.11;100587.02;1695191;82;21035;-70
2021/08/10 07:47:11;;;;;;;7.93;6.10;;;;;;;24.93;59.35;100577.67;1721894;82;21089;-70
2021/08/10 07:49:39;;;;;;;7.43;6.00;;;;;;;24.96;59.30;100583.00;1724051;81;21092;-71
2021/08/10 07:52:06;;;;;;;7.80;5.70;;;;;;;24.94;59.00;100588.84;1721282;81;21162;-70
2021/08/10 07:54:33;;;;;;;6.97;5.27;;;;;;;24.95;59.23;100589.63;1721577;81;21117;-70
2021/08/10 07:57:00;;;;;;;7.20;4.77;;;;;;;25.01;58.78;100586.85;1723975;81;21097;-70
2021/08/10 07:59:28;;;;;;;8.67;5.03;;;;;;;25.09;58.59;100576.88;1718592;81;21963;-70
2021/08/10 08:01:56;;;;;;;7.27;4.93;;;;;;;25.18;58.71;100584.34;1720154;81;21545;-70
2021/08/10 08:04:23;;;;;;;7.07;5.00;;;;;;;25.25;58.00;100570.84;1721476;81;21109;-69
2021/08/10 08:06:52;;;;;;;8.37;4.87;;;;;;;25.31;57.93;100574.89;1723324;81;21062;-68
2021/08/10 08:09:19;;;;;;;5.00;4.17;;;;;;;25.38;57.45;100577.77;1743687;80;21095;-70
2021/08/10 08:11:48;;;;;;;6.20;4.53;;;;;;;25.44;56.41;100575.56;1739326;81;21107;-70
2021/08/10 08:14:16;;;;;;;5.57;4.70;;;;;;;25.43;56.28;100572.01;1728874;81;21684;-70
2021/08/10 08:16:45;;;;;;;5.50;4.00;;;;;;;25.44;56.51;100579.66;1725513;81;21133;-71
2021/08/10 08:19:14;;;;;;;5.37;4.47;;;;;;;25.44;56.84;100572.25;1745649;80;21523;-70
2021/08/10 08:21:42;;;;;;;7.27;4.77;;;;;;;25.51;57.47;100590.75;1716167;81;21036;-71
2021/08/10 08:24:11;;;;;;;6.73;4.30;;;;;;;25.56;57.28;100582.83;1724883;81;21096;-72
2021/08/10 08:26:40;;;;;;;8.43;4.90;;;;;;;25.56;57.62;100585.56;1726892;81;21066;-72
2021/08/10 08:29:06;;;;;;;6.03;4.70;;;;;;;25.58;57.97;100588.17;1721857;82;21332;-70
2021/08/10 08:31:35;;;;;;;6.80;4.60;;;;;;;25.63;57.81;100586.53;1722598;82;21022;-69
2021/08/10 08:34:02;;;;;;;7.37;4.40;;;;;;;25.67;56.84;100589.34;1724679;82;21034;-70
2021/08/10 08:36:29;;;;;;;6.27;4.37;;;;;;;25.72;56.73;100586.30;1724610;81;21604;-70
2021/08/10 08:38:57;;;;;;;6.07;4.13;;;;;;;25.79;56.62;100585.08;1729914;81;21103;-69
2021/08/10 08:41:25;;;;;;;5.03;4.50;;;;;;;25.85;57.05;100583.68;1729741;81;21103;-69
2021/08/10 08:43:52;;;;;;;4.67;3.97;;;;;;;25.93;56.24;100582.69;1720042;81;21378;-71
2021/08/10 08:46:22;;;;;;;5.10;3.87;;;;;;;25.98;56.11;100573.38;1726899;81;21096;-70
2021/08/10 08:48:49;;;;;;;4.93;4.43;;;;;;;26.09;56.42;100568.89;1726774;81;22266;-70
2021/08/10 08:51:23;;;;;;;6.40;4.23;;;;;;;26.24;55.87;100576.81;1724707;81;21082;-69
2021/08/10 08:53:52;;;;;;;4.83;4.00;;;;;;;26.35;54.85;100567.42;1736894;80;21501;-72
2021/08/10 08:56:21;;;;;;;8.50;4.63;;;;;;;26.33;53.05;100562.33;1743048;80;21558;-70
2021/08/10 08:58:51;;;;;;;6.33;4.40;;;;;;;26.28;52.63;100563.19;1719379;81;21058;-71
2021/08/10 09:01:19;;;;;;;5.83;3.83;;;;;;;26.22;53.25;100559.16;1712578;82;21039;-72
2021/08/10 09:03:46;;;;;;;4.97;4.40;;;;;;;26.22;54.30;100554.47;1745928;80;21059;-71
2021/08/10 09:06:13;;;;;;;5.27;4.73;;;;;;;26.31;53.53;100555.04;1735434;80;21617;-70
2021/08/10 09:08:42;;;;;;;5.77;4.00;;;;;;;26.39;53.56;100552.66;1707315;82;21066;-69
2021/08/10 09:11:19;;;;;;;6.07;3.90;;;;;;;26.47;52.59;100564.52;1741121;80;21094;-69
2021/08/10 09:13:59;;;;;;;4.63;4.13;;;;;;;26.51;52.17;100555.81;1745836;81;21011;-74
2021/08/10 09:16:26;;;;;;;6.93;3.80;;;;;;;26.55;52.07;100558.61;1738176;80;21067;-72
2021/08/10 09:18:56;;;;;;;5.20;3.90;;;;;;;26.55;52.49;100548.44;1749432;81;21553;-73
2021/08/10 09:21:26;;;;;;;5.73;4.10;;;;;;;26.59;52.47;100549.31;1750998;80;21105;-69
2021/08/10 09:24:01;;;;;;;5.87;4.23;;;;;;;26.67;52.54;100544.73;1743109;81;21074;-72
2021/08/10 09:26:37;;;;;;;4.43;3.80;;;;;;;26.80;52.27;100546.70;1743282;80;21176;-70
2021/08/10 09:29:06;;;;;;;5.87;4.13;;;;;;;26.90;50.95;100554.30;1746943;80;21098;-71
2021/08/10 09:31:42;;;;;;;5.40;3.90;;;;;;;26.96;50.44;100551.45;1733106;81;21119;-73
2021/08/10 09:34:22;;;;;;;5.90;4.10;;;;;;;27.01;50.51;100550.34;1714511;81;21091;-71
2021/08/10 09:36:50;;;;;;;7.10;4.50;;;;;;;27.06;51.51;100548.67;1710882;81;21108;-73
2021/08/10 09:39:33;;;;;;;5.47;4.17;;;;;;;27.12;51.09;100546.61;1720313;81;21075;-72
2021/08/10 09:42:12;;;;;;;8.47;4.60;;;;;;;27.20;49.00;100550.85;1742622;80;21078;-71
2021/08/10 09:45:02;;;;;;;5.53;4.23;;;;;;;27.21;48.79;100551.84;1738335;80;21440;-73
2021/08/10 09:47:36;;;;;;;7.17;4.17;;;;;;;27.24;49.04;100540.13;1748628;80;21153;-73
2021/08/10 09:50:20;;;;;;;6.27;4.73;;;;;;;27.31;49.32;100536.70;1743982;80;21110;-73
2021/08/10 09:52:47;;;;;;;6.00;4.30;;;;;;;27.41;49.79;100539.38;1749638;80;21066;-73
2021/08/10 09:55:16;;;;;;;4.80;4.23;;;;;;;27.55;48.98;100539.58;1747119;80;21071;-71
2021/08/10 09:58:02;;;;;;;6.47;4.40;;;;;;;27.62;48.29;100532.80;1744849;80;21173;-71
2021/08/10 10:00:39;;;;;;;6.60;4.10;;;;;;;27.67;47.59;100532.45;1739819;80;21106;-73
2021/08/10 10:03:24;;;;;;;5.87;3.87;;;;;;;27.69;47.74;100527.98;1743617;80;21196;-71
2021/08/10 10:05:53;;;;;;;5.13;4.17;;;;;;;27.70;47.81;100545.44;1718057;81;21801;-70
2021/08/10 10:08:23;;;;;;;6.20;4.43;;;;;;;27.71;48.24;100524.30;1717380;82;21035;-72
2021/08/10 10:10:54;;;;;;;4.83;4.30;;;;;;;27.76;48.54;100523.95;1728026;81;21106;-72
2021/08/10 10:13:23;;;;;;;;;;;;;;;27.80;48.62;100520.09;1720271;81;21062;-72
2021/08/10 10:15:50;;;;;;;7.33;4.73;;;;;;;27.79;48.71;100511.66;1726643;81;20242;-71
2021/08/10 10:18:18;;;;;;;5.40;4.17;;;;;;;27.80;47.93;100515.20;1726873;82;21609;-71
2021/08/10 10:20:47;;;;;;;5.50;4.50;;;;;;;27.78;48.47;100513.42;1726165;81;21007;-71
2021/08/10 10:23:19;;;;;;;5.33;4.20;;;;;;;27.76;47.94;100505.55;1723478;81;21197;-74
2021/08/10 10:25:45;;;;;;;;;;;;;;;27.78;47.56;100505.98;1725645;81;21069;-72
2021/08/10 10:28:15;;;;;;;6.63;4.87;;;;;;;27.79;47.55;100497.16;1721614;81;20506;-75
2021/08/10 10:30:44;;;;;;;7.27;4.37;;;;;;;27.81;47.91;100491.50;1725894;81;21030;-74
2021/08/10 10:33:13;;;;;;;7.43;4.07;;;;;;;27.82;47.76;100493.08;1728899;81;21089;-72
2021/08/10 10:35:41;;;;;;;6.33;4.13;;;;;;;27.86;46.87;100496.45;1701989;82;21113;-71
2021/08/10 10:38:08;;;;;;;6.33;4.37;;;;;;;27.88;46.55;100483.93;1724860;82;21105;-71
2021/08/10 10:40:35;;;;;;;7.93;4.67;;;;;;;27.91;46.73;100479.06;1725930;82;21734;-70
2021/08/10 10:43:02;;;;;;;6.53;5.17;;;;;;;27.96;46.46;100477.92;1723161;81;21169;-72
2021/08/10 10:45:41;;;;;;;6.10;5.50;;;;;;;28.00;46.51;100473.25;1720608;82;21492;-72
2021/08/10 10:48:32;;;;;;;7.00;5.23;;;;;;;28.05;45.95;100471.55;1721104;82;21149;-72
2021/08/10 10:51:13;;;;;;;6.70;5.00;;;;;;;28.06;45.87;100478.02;1727994;81;20967;-71
2021/08/10 10:53:42;;;;;;;5.33;4.83;;;;;;;28.11;46.46;100473.38;1714733;81;21093;-73
2021/08/10 10:56:31;;;;;;;5.93;5.10;;;;;;;28.13;45.92;100477.88;1730597;82;21007;-71
2021/08/10 10:59:21;;;;;;;5.73;4.90;;;;;;;28.14;46.17;100478.89;1721192;81;21768;-72
2021/08/10 11:01:49;;;;;;;6.00;4.70;;;;;;;28.17;46.41;100475.39;1644882;86;21353;-73
2021/08/10 11:04:16;;;;;;;5.93;4.40;;;;;;;28.22;46.37;100485.23;1707027;81;21120;-73
2021/08/10 11:06:46;;;;;;;5.37;4.33;;;;;;;28.23;45.58;100478.56;1731824;82;21572;-72
2021/08/10 11:09:47;;;;;;;5.37;4.47;;;;;;;28.25;45.89;100477.02;1728457;81;21039;-73
2021/08/10 11:12:47;;;;;;;5.83;4.37;;;;;;;28.30;46.14;100489.63;1729639;82;21381;-73
2021/08/10 11:15:10;;;;;;;5.37;4.23;;;;;;;28.37;46.30;100494.40;1746866;80;21055;-71
2021/08/10 11:17:37;;;;;;;5.67;4.47;;;;;;;28.39;46.18;100477.75;1713326;82;21032;-70
2021/08/10 11:20:25;;;;;;;5.77;4.60;;;;;;;28.44;45.76;100482.13;1743807;81;21053;-73
2021/08/10 11:23:12;;;;;;;6.93;4.50;;;;;;;28.46;45.68;100470.96;1751152;81;21035;-72
2021/08/10 11:25:40;;;;;;;6.47;4.27;;;;;;;28.51;46.04;100465.69;1706785;82;21004;-73
2021/08/10 11:28:36;;;;;;;4.60;3.90;;;;;;;28.56;45.71;100467.28;1709030;83;21104;-71
2021/08/10 11:31:08;;;;;;;5.63;4.00;;;;;;;28.60;45.87;100458.50;1745037;80;21062;-73
2021/08/10 11:33:40;;;;;;;6.50;5.67;;;;;;;28.67;45.86;100457.95;1737398;80;21081;-71
2021/08/10 11:36:16;;;;;;;8.43;5.10;;;;;;;28.75;45.63;100458.78;1736354;80;21058;-71